sensor_id;sensor_type;location;lat;lon;timestamp;pressure;altitude;pressure_sealevel;temperature;humidity
68594;BME280;55563;52.416;13.548;2023-12-20T00:01:38;100561.72;;;6.48;100.00
68594;BME280;55563;52.416;13.548;2023-12-20T00:03:41;100557.63;;;6.52;100.00
68594;BME280;55563;52.416;13.548;2023-12-20T00:05:42;100559.16;;;6.65;100.00
68594;BME280;55563;52.416;13.548;2023-12-20T00:07:43;100557.88;;;6.67;100.00
68594;BME280;55563;52.416;13.548;2023-12-20T00:09:45;100552.66;;;6.67;100.00
68594;BME280;55563;52.416;13.548;2023-12-20T00:11:47;100548.06;;;6.57;100.00
68594;BME280;55563;52.416;13.548;2023-12-20T00:13:49;100550.84;;;6.68;100.00
68594;BME280;55563;52.416;13.548;2023-12-20T00:15:50;100550.66;;;6.57;100.00
68594;BME280;55563;52.416;13.548;2023-12-20T00:17:51;100544.09;;;6.55;100.00
68594;BME280;55563;52.416;13.548;2023-12-20T00:19:52;100537.69;;;6.63;100.00
68594;BME280;55563;52.416;13.548;2023-12-20T00:21:55;100545.63;;;6.68;100.00
68594;BME280;55563;52.416;13.548;2023-12-20T00:23:56;100533.53;;;6.62;100.00
68594;BME280;55563;52.416;13.548;2023-12-20T00:25:58;100534.72;;;6.71;100.00
68594;BME280;55563;52.416;13.548;2023-12-20T00:28:00;100540.66;;;6.66;100.00
68594;BME280;55563;52.416;13.548;2023-12-20T00:30:00;100530.22;;;6.66;100.00
68594;BME280;55563;52.416;13.548;2023-12-20T00:32:02;100525.75;;;6.67;100.00
68594;BME280;55563;52.416;13.548;2023-12-20T00:34:04;100534.88;;;6.64;100.00
68594;BME280;55563;52.416;13.548;2023-12-20T00:36:05;100533.59;;;6.67;100.00
68594;BME280;55563;52.416;13.548;2023-12-20T00:38:06;100530.75;;;6.68;100.00
68594;BME280;55563;52.416;13.548;2023-12-20T00:40:11;100528.16;;;6.68;100.00
68594;BME280;55563;52.416;13.548;2023-12-20T00:42:12;100523.41;;;6.65;100.00
68594;BME280;55563;52.416;13.548;2023-12-20T00:44:13;100523.81;;;6.74;100.00
68594;BME280;55563;52.416;13.548;2023-12-20T00:46:13;100521.75;;;6.76;100.00
68594;BME280;55563;52.416;13.548;2023-12-20T00:48:14;100528.81;;;6.75;100.00
68594;BME280;55563;52.416;13.548;2023-12-20T00:50:16;100532.13;;;6.71;100.00
68594;BME280;55563;52.416;13.548;2023-12-20T00:52:18;100520.09;;;6.70;100.00
68594;BME280;55563;52.416;13.548;2023-12-20T00:54:20;100516.28;;;6.77;100.00
68594;BME280;55563;52.416;13.548;2023-12-20T00:56:22;100515.75;;;6.75;100.00
68594;BME280;55563;52.416;13.548;2023-12-20T00:58:24;100515.75;;;6.75;100.00
68594;BME280;55563;52.416;13.548;2023-12-20T01:00:25;100511.13;;;6.66;100.00
68594;BME280;55563;52.416;13.548;2023-12-20T01:02:28;100517.69;;;6.68;100.00
68594;BME280;55563;52.416;13.548;2023-12-20T01:04:29;100516.19;;;6.72;100.00
68594;BME280;55563;52.416;13.548;2023-12-20T01:06:31;100522.00;;;6.74;100.00
68594;BME280;55563;52.416;13.548;2023-12-20T01:08:33;100527.13;;;6.69;100.00
68594;BME280;55563;52.416;13.548;2023-12-20T01:10:36;100516.91;;;6.68;100.00
68594;BME280;55563;52.416;13.548;2023-12-20T01:12:37;100523.00;;;6.73;100.00
68594;BME280;55563;52.416;13.548;2023-12-20T01:14:39;100512.56;;;6.73;100.00
68594;BME280;55563;52.416;13.548;2023-12-20T01:16:40;100520.88;;;6.70;100.00
68594;BME280;55563;52.416;13.548;2023-12-20T01:18:40;100522.69;;;6.70;100.00
68594;BME280;55563;52.416;13.548;2023-12-20T01:20:41;100524.50;;;6.69;100.00
68594;BME280;55563;52.416;13.548;2023-12-20T01:22:43;100519.84;;;6.71;100.00
68594;BME280;55563;52.416;13.548;2023-12-20T01:24:46;100517.00;;;6.73;100.00
68594;BME280;55563;52.416;13.548;2023-12-20T01:26:47;100522.22;;;6.73;100.00
68594;BME280;55563;52.416;13.548;2023-12-20T01:28:49;100516.69;;;6.69;100.00
68594;BME280;55563;52.416;13.548;2023-12-20T01:30:51;100516.09;;;6.67;100.00
68594;BME280;55563;52.416;13.548;2023-12-20T01:32:52;100511.22;;;6.71;100.00
68594;BME280;55563;52.416;13.548;2023-12-20T01:34:56;100524.75;;;6.68;100.00
68594;BME280;55563;52.416;13.548;2023-12-20T01:36:58;100524.75;;;6.68;100.00
68594;BME280;55563;52.416;13.548;2023-12-20T01:39:00;100521.66;;;6.71;100.00
68594;BME280;55563;52.416;13.548;2023-12-20T01:41:02;100520.16;;;6.75;100.00
68594;BME280;55563;52.416;13.548;2023-12-20T01:43:08;100519.16;;;6.76;100.00
68594;BME280;55563;52.416;13.548;2023-12-20T01:45:09;100522.78;;;6.75;100.00
68594;BME280;55563;52.416;13.548;2023-12-20T01:47:12;100518.34;;;6.75;100.00
68594;BME280;55563;52.416;13.548;2023-12-20T01:49:14;100518.03;;;6.43;100.00
68594;BME280;55563;52.416;13.548;2023-12-20T01:51:17;100507.66;;;6.32;100.00
68594;BME280;55563;52.416;13.548;2023-12-20T01:53:20;100513.09;;;6.58;100.00
68594;BME280;55563;52.416;13.548;2023-12-20T01:55:23;100508.28;;;6.67;100.00
68594;BME280;55563;52.416;13.548;2023-12-20T01:57:24;100510.66;;;6.69;100.00
68594;BME280;55563;52.416;13.548;2023-12-20T01:59:25;100514.28;;;6.51;100.00
68594;BME280;55563;52.416;13.548;2023-12-20T02:01:28;100512.69;;;6.50;100.00
68594;BME280;55563;52.416;13.548;2023-12-20T02:03:30;100502.25;;;6.50;100.00
68594;BME280;55563;52.416;13.548;2023-12-20T02:05:31;100500.19;;;6.52;100.00
68594;BME280;55563;52.416;13.548;2023-12-20T02:07:34;100496.31;;;6.54;100.00
68594;BME280;55563;52.416;13.548;2023-12-20T02:09:38;100503.34;;;6.54;100.00
68594;BME280;55563;52.416;13.548;2023-12-20T02:11:40;100498.91;;;6.54;100.00
68594;BME280;55563;52.416;13.548;2023-12-20T02:13:42;100494.28;;;6.56;100.00
68594;BME280;55563;52.416;13.548;2023-12-20T02:15:44;100491.97;;;6.60;100.00
68594;BME280;55563;52.416;13.548;2023-12-20T02:17:47;100488.00;;;6.57;100.00
68594;BME280;55563;52.416;13.548;2023-12-20T02:19:49;100491.66;;;6.56;100.00
68594;BME280;55563;52.416;13.548;2023-12-20T02:22:06;100492.91;;;6.54;100.00
68594;BME280;55563;52.416;13.548;2023-12-20T02:24:09;100495.13;;;6.45;100.00
68594;BME280;55563;52.416;13.548;2023-12-20T02:26:10;100494.72;;;6.53;100.00
68594;BME280;55563;52.416;13.548;2023-12-20T02:28:15;100491.09;;;6.54;100.00
68594;BME280;55563;52.416;13.548;2023-12-20T02:30:17;100491.66;;;6.56;100.00
68594;BME280;55563;52.416;13.548;2023-12-20T02:32:19;100494.00;;;6.58;100.00
68594;BME280;55563;52.416;13.548;2023-12-20T02:34:23;100491.97;;;6.60;100.00
68594;BME280;55563;52.416;13.548;2023-12-20T02:36:24;100501.84;;;6.58;100.00
68594;BME280;55563;52.416;13.548;2023-12-20T02:38:26;100496.19;;;6.61;100.00
68594;BME280;55563;52.416;13.548;2023-12-20T02:40:28;100485.97;;;6.60;100.00
68594;BME280;55563;52.416;13.548;2023-12-20T02:42:30;100485.97;;;6.60;100.00
68594;BME280;55563;52.416;13.548;2023-12-20T02:44:32;100491.97;;;6.60;100.00
68594;BME280;55563;52.416;13.548;2023-12-20T02:46:34;100480.25;;;6.63;100.00
68594;BME280;55563;52.416;13.548;2023-12-20T02:48:36;100482.56;;;6.59;100.00
68594;BME280;55563;52.416;13.548;2023-12-20T02:50:38;100473.22;;;6.63;100.00
68594;BME280;55563;52.416;13.548;2023-12-20T02:52:39;100475.38;;;6.66;100.00
68594;BME280;55563;52.416;13.548;2023-12-20T02:54:39;100476.94;;;6.67;100.00
68594;BME280;55563;52.416;13.548;2023-12-20T02:56:42;100487.06;;;6.64;100.00
68594;BME280;55563;52.416;13.548;2023-12-20T02:58:42;100490.78;;;6.68;100.00
68594;BME280;55563;52.416;13.548;2023-12-20T03:00:43;100492.38;;;6.69;100.00
68594;BME280;55563;52.416;13.548;2023-12-20T03:02:44;100492.38;;;6.69;100.00
68594;BME280;55563;52.416;13.548;2023-12-20T03:04:45;100501.00;;;6.69;100.00
68594;BME280;55563;52.416;13.548;2023-12-20T03:06:45;100488.53;;;6.71;100.00
68594;BME280;55563;52.416;13.548;2023-12-20T03:08:46;100482.59;;;6.76;100.00
68594;BME280;55563;52.416;13.548;2023-12-20T03:10:47;100487.00;;;6.75;100.00
68594;BME280;55563;52.416;13.548;2023-12-20T03:12:47;100492.78;;;6.77;100.00
68594;BME280;55563;52.416;13.548;2023-12-20T03:14:48;100495.97;;;6.79;100.00
68594;BME280;55563;52.416;13.548;2023-12-20T03:16:49;100505.84;;;6.77;100.00
68594;BME280;55563;52.416;13.548;2023-12-20T03:18:50;100511.84;;;6.78;100.00
68594;BME280;55563;52.416;13.548;2023-12-20T03:20:51;100502.28;;;6.83;100.00
68594;BME280;55563;52.416;13.548;2023-12-20T03:22:52;100505.59;;;6.79;100.00
68594;BME280;55563;52.416;13.548;2023-12-20T03:24:52;100504.09;;;6.83;100.00
68594;BME280;55563;52.416;13.548;2023-12-20T03:26:53;100502.50;;;6.82;100.00
68594;BME280;55563;52.416;13.548;2023-12-20T03:28:54;100512.50;;;6.85;100.00
68594;BME280;55563;52.416;13.548;2023-12-20T03:30:54;100503.88;;;6.84;100.00
68594;BME280;55563;52.416;13.548;2023-12-20T03:32:55;100504.91;;;6.83;100.00
68594;BME280;55563;52.416;13.548;2023-12-20T03:34:55;100499.66;;;6.83;100.00
68594;BME280;55563;52.416;13.548;2023-12-20T03:36:56;100497.84;;;6.84;100.00
68594;BME280;55563;52.416;13.548;2023-12-20T03:38:56;100504.19;;;6.88;100.00
68594;BME280;55563;52.416;13.548;2023-12-20T03:40:57;100504.97;;;6.88;100.00
68594;BME280;55563;52.416;13.548;2023-12-20T03:42:58;100505.78;;;6.89;100.00
68594;BME280;55563;52.416;13.548;2023-12-20T03:44:58;100502.59;;;6.87;100.00
68594;BME280;55563;52.416;13.548;2023-12-20T03:46:59;100499.44;;;6.85;100.00
68594;BME280;55563;52.416;13.548;2023-12-20T03:49:00;100504.09;;;6.83;100.00
68594;BME280;55563;52.416;13.548;2023-12-20T03:51:01;100507.28;;;6.85;100.00
68594;BME280;55563;52.416;13.548;2023-12-20T03:53:02;100506.56;;;6.89;100.00
68594;BME280;55563;52.416;13.548;2023-12-20T03:55:04;100504.66;;;6.85;100.00
68594;BME280;55563;52.416;13.548;2023-12-20T03:57:05;100502.94;;;6.90;100.00
68594;BME280;55563;52.416;13.548;2023-12-20T03:59:05;100502.84;;;6.85;100.00
68594;BME280;55563;52.416;13.548;2023-12-20T04:01:10;100490.41;;;6.92;100.00
68594;BME280;55563;52.416;13.548;2023-12-20T04:03:12;100480.19;;;6.91;100.00
68594;BME280;55563;52.416;13.548;2023-12-20T04:05:14;100471.09;;;6.93;100.00
68594;BME280;55563;52.416;13.548;2023-12-20T04:07:14;100474.66;;;6.87;100.00
68594;BME280;55563;52.416;13.548;2023-12-20T04:09:15;100483.06;;;6.89;100.00
68594;BME280;55563;52.416;13.548;2023-12-20T04:11:15;100470.53;;;6.91;100.00
68594;BME280;55563;52.416;13.548;2023-12-20T04:13:16;100480.19;;;6.91;100.00
68594;BME280;55563;52.416;13.548;2023-12-20T04:15:16;100473.94;;;6.92;100.00
68594;BME280;55563;52.416;13.548;2023-12-20T04:17:17;100474.75;;;6.92;100.00
68594;BME280;55563;52.416;13.548;2023-12-20T04:19:18;100467.38;;;6.89;100.00
68594;BME280;55563;52.416;13.548;2023-12-20T04:21:18;100465.78;;;6.88;100.00
68594;BME280;55563;52.416;13.548;2023-12-20T04:23:19;100468.72;;;6.92;100.00
68594;BME280;55563;52.416;13.548;2023-12-20T04:25:19;100461.19;;;6.95;100.00
68594;BME280;55563;52.416;13.548;2023-12-20T04:27:20;100464.50;;;6.91;100.00
68594;BME280;55563;52.416;13.548;2023-12-20T04:29:20;100459.91;;;6.81;100.00
68594;BME280;55563;52.416;13.548;2023-12-20T04:31:21;100461.19;;;6.79;100.00
68594;BME280;55563;52.416;13.548;2023-12-20T04:33:23;100470.06;;;6.78;100.00
68594;BME280;55563;52.416;13.548;2023-12-20T04:35:25;100466.72;;;6.82;100.00
68594;BME280;55563;52.416;13.548;2023-12-20T04:37:26;100474.84;;;6.81;100.00
68594;BME280;55563;52.416;13.548;2023-12-20T04:39:26;100469.84;;;6.79;100.00
68594;BME280;55563;52.416;13.548;2023-12-20T04:41:27;100471.25;;;6.70;100.00
68594;BME280;55563;52.416;13.548;2023-12-20T04:43:28;100464.59;;;6.79;100.00
68594;BME280;55563;52.416;13.548;2023-12-20T04:45:30;100455.19;;;6.78;100.00
68594;BME280;55563;52.416;13.548;2023-12-20T04:47:30;100457.22;;;6.76;100.00
68594;BME280;55563;52.416;13.548;2023-12-20T04:49:31;100453.59;;;6.61;100.00
68594;BME280;55563;52.416;13.548;2023-12-20T04:51:33;100455.25;;;6.67;100.00
68594;BME280;55563;52.416;13.548;2023-12-20T04:53:34;100463.41;;;6.70;100.00
68594;BME280;55563;52.416;13.548;2023-12-20T04:55:35;100462.16;;;6.73;100.00
68594;BME280;55563;52.416;13.548;2023-12-20T04:57:37;100466.13;;;6.75;100.00
68594;BME280;55563;52.416;13.548;2023-12-20T04:59:37;100465.56;;;6.73;100.00
68594;BME280;55563;52.416;13.548;2023-12-20T05:01:38;100460.56;;;6.72;100.00
68594;BME280;55563;52.416;13.548;2023-12-20T05:03:38;100471.97;;;6.66;100.00
68594;BME280;55563;52.416;13.548;2023-12-20T05:05:39;100459.44;;;6.68;100.00
68594;BME280;55563;52.416;13.548;2023-12-20T05:07:39;100471.47;;;6.69;100.00
68594;BME280;55563;52.416;13.548;2023-12-20T05:09:40;100457.63;;;6.68;100.00
68594;BME280;55563;52.416;13.548;2023-12-20T05:11:41;100456.28;;;6.66;100.00
68594;BME280;55563;52.416;13.548;2023-12-20T05:13:42;100470.59;;;6.63;100.00
68594;BME280;55563;52.416;13.548;2023-12-20T05:15:43;100467.38;;;6.56;100.00
68594;BME280;55563;52.416;13.548;2023-12-20T05:17:43;100475.34;;;6.49;100.00
68594;BME280;55563;52.416;13.548;2023-12-20T05:19:44;100467.81;;;6.53;100.00
68594;BME280;55563;52.416;13.548;2023-12-20T05:21:44;100472.94;;;6.48;100.00
68594;BME280;55563;52.416;13.548;2023-12-20T05:23:45;100465.81;;;6.43;100.00
68594;BME280;55563;52.416;13.548;2023-12-20T05:25:45;100472.13;;;6.31;100.00
68594;BME280;55563;52.416;13.548;2023-12-20T05:27:46;100461.22;;;6.34;100.00
68594;BME280;55563;52.416;13.548;2023-12-20T05:29:47;100464.31;;;6.31;100.00
68594;BME280;55563;52.416;13.548;2023-12-20T05:31:47;100464.09;;;6.32;100.00
68594;BME280;55563;52.416;13.548;2023-12-20T05:33:48;100479.41;;;6.29;100.00
68594;BME280;55563;52.416;13.548;2023-12-20T05:35:48;100471.03;;;6.27;100.00
68594;BME280;55563;52.416;13.548;2023-12-20T05:37:49;100471.25;;;6.25;100.00
68594;BME280;55563;52.416;13.548;2023-12-20T05:39:50;100469.13;;;6.22;100.00
68594;BME280;55563;52.416;13.548;2023-12-20T05:41:51;100474.44;;;6.27;100.00
68594;BME280;55563;52.416;13.548;2023-12-20T05:43:51;100477.84;;;6.28;100.00
68594;BME280;55563;52.416;13.548;2023-12-20T05:45:52;100474.88;;;6.24;100.00
68594;BME280;55563;52.416;13.548;2023-12-20T05:47:52;100467.31;;;6.23;100.00
68594;BME280;55563;52.416;13.548;2023-12-20T05:49:53;100468.22;;;6.17;100.00
68594;BME280;55563;52.416;13.548;2023-12-20T05:51:54;100465.13;;;6.20;100.00
68594;BME280;55563;52.416;13.548;2023-12-20T05:53:55;100462.91;;;6.11;100.00
68594;BME280;55563;52.416;13.548;2023-12-20T05:55:55;100462.03;;;6.06;100.00
68594;BME280;55563;52.416;13.548;2023-12-20T05:57:56;100463.72;;;6.00;100.00
68594;BME280;55563;52.416;13.548;2023-12-20T05:59:56;100465.00;;;5.98;100.00
68594;BME280;55563;52.416;13.548;2023-12-20T06:01:57;100454.25;;;5.94;100.00
68594;BME280;55563;52.416;13.548;2023-12-20T06:03:57;100453.22;;;5.84;100.00
68594;BME280;55563;52.416;13.548;2023-12-20T06:05:58;100452.09;;;5.91;100.00
68594;BME280;55563;52.416;13.548;2023-12-20T06:08:00;100455.38;;;5.87;100.00
68594;BME280;55563;52.416;13.548;2023-12-20T06:10:03;100448.22;;;5.82;100.00
68594;BME280;55563;52.416;13.548;2023-12-20T06:12:04;100456.63;;;5.84;100.00
68594;BME280;55563;52.416;13.548;2023-12-20T06:14:05;100448.72;;;5.79;100.00
68594;BME280;55563;52.416;13.548;2023-12-20T06:16:05;100450.97;;;5.76;100.00
68594;BME280;55563;52.416;13.548;2023-12-20T06:18:07;100445.69;;;5.70;100.00
68594;BME280;55563;52.416;13.548;2023-12-20T06:20:08;100441.00;;;5.72;100.00
68594;BME280;55563;52.416;13.548;2023-12-20T06:22:09;100437.38;;;5.74;100.00
68594;BME280;55563;52.416;13.548;2023-12-20T06:24:09;100447.59;;;5.75;100.00
68594;BME280;55563;52.416;13.548;2023-12-20T06:26:10;100441.22;;;5.71;100.00
68594;BME280;55563;52.416;13.548;2023-12-20T06:28:11;100440.91;;;5.67;100.00
68594;BME280;55563;52.416;13.548;2023-12-20T06:30:15;100441.91;;;5.66;100.00
68594;BME280;55563;52.416;13.548;2023-12-20T06:32:16;100444.41;;;5.61;100.00
68594;BME280;55563;52.416;13.548;2023-12-20T06:34:17;100447.38;;;5.65;100.00
68594;BME280;55563;52.416;13.548;2023-12-20T06:36:17;100454.41;;;5.64;100.00
68594;BME280;55563;52.416;13.548;2023-12-20T06:38:18;100452.03;;;5.63;100.00
68594;BME280;55563;52.416;13.548;2023-12-20T06:40:19;100449.19;;;5.64;100.00
68594;BME280;55563;52.416;13.548;2023-12-20T06:42:20;100454.84;;;5.61;100.00
68594;BME280;55563;52.416;13.548;2023-12-20T06:44:21;100451.69;;;5.59;100.00
68594;BME280;55563;52.416;13.548;2023-12-20T06:46:21;100456.34;;;5.57;100.00
68594;BME280;55563;52.416;13.548;2023-12-20T06:48:22;100455.00;;;5.55;100.00
68594;BME280;55563;52.416;13.548;2023-12-20T06:50:22;100456.22;;;5.52;100.00
68594;BME280;55563;52.416;13.548;2023-12-20T06:52:23;100455.44;;;5.52;100.00
68594;BME280;55563;52.416;13.548;2023-12-20T06:54:24;100445.81;;;5.52;100.00
68594;BME280;55563;52.416;13.548;2023-12-20T06:56:24;100448.19;;;5.54;100.00
68594;BME280;55563;52.416;13.548;2023-12-20T06:58:25;100444.00;;;5.53;100.00
68594;BME280;55563;52.416;13.548;2023-12-20T07:00:25;100450.47;;;5.50;100.00
68594;BME280;55563;52.416;13.548;2023-12-20T07:02:26;100442.66;;;5.50;100.00
68594;BME280;55563;52.416;13.548;2023-12-20T07:04:32;100452.63;;;5.42;100.00
68594;BME280;55563;52.416;13.548;2023-12-20T07:06:32;100440.72;;;5.46;100.00
68594;BME280;55563;52.416;13.548;2023-12-20T07:08:33;100446.63;;;5.41;100.00
68594;BME280;55563;52.416;13.548;2023-12-20T07:10:34;100454.19;;;5.43;100.00
68594;BME280;55563;52.416;13.548;2023-12-20T07:12:35;100446.84;;;5.40;100.00
68594;BME280;55563;52.416;13.548;2023-12-20T07:14:35;100440.94;;;5.44;100.00
68594;BME280;55563;52.416;13.548;2023-12-20T07:16:36;100444.34;;;5.45;100.00
68594;BME280;55563;52.416;13.548;2023-12-20T07:18:37;100447.66;;;5.40;100.00
68594;BME280;55563;52.416;13.548;2023-12-20T07:20:37;100442.53;;;5.45;100.00
68594;BME280;55563;52.416;13.548;2023-12-20T07:22:38;100453.75;;;5.46;100.00
68594;BME280;55563;52.416;13.548;2023-12-20T07:24:39;100437.06;;;5.47;100.00
68594;BME280;55563;52.416;13.548;2023-12-20T07:26:40;100442.75;;;5.44;100.00
68594;BME280;55563;52.416;13.548;2023-12-20T07:28:40;100445.16;;;5.45;100.00
68594;BME280;55563;52.416;13.548;2023-12-20T07:30:41;100448.75;;;5.44;100.00
68594;BME280;55563;52.416;13.548;2023-12-20T07:32:42;100445.94;;;5.46;100.00
68594;BME280;55563;52.416;13.548;2023-12-20T07:34:42;100444.78;;;5.53;100.00
68594;BME280;55563;52.416;13.548;2023-12-20T07:36:43;100444.91;;;5.47;100.00
68594;BME280;55563;52.416;13.548;2023-12-20T07:38:43;100441.63;;;5.51;100.00
68594;BME280;55563;52.416;13.548;2023-12-20T07:40:44;100440.03;;;5.50;100.00
68594;BME280;55563;52.416;13.548;2023-12-20T07:42:45;100445.38;;;5.44;100.00
68594;BME280;55563;52.416;13.548;2023-12-20T07:44:45;100439.34;;;5.43;100.00
68594;BME280;55563;52.416;13.548;2023-12-20T07:46:46;100444.91;;;5.47;100.00
68594;BME280;55563;52.416;13.548;2023-12-20T07:48:49;100444.00;;;5.53;100.00
68594;BME280;55563;52.416;13.548;2023-12-20T07:50:49;100441.06;;;5.49;100.00
68594;BME280;55563;52.416;13.548;2023-12-20T07:52:50;100440.59;;;5.52;100.00
68594;BME280;55563;52.416;13.548;2023-12-20T07:54:50;100439.56;;;5.53;100.00
68594;BME280;55563;52.416;13.548;2023-12-20T07:56:51;100440.69;;;5.57;100.00
68594;BME280;55563;52.416;13.548;2023-12-20T07:58:51;100443.31;;;5.57;100.00
68594;BME280;55563;52.416;13.548;2023-12-20T08:00:52;100443.06;;;5.59;100.00
68594;BME280;55563;52.416;13.548;2023-12-20T08:02:53;100429.47;;;5.57;100.00
68594;BME280;55563;52.416;13.548;2023-12-20T08:04:53;100432.06;;;5.57;100.00
68594;BME280;55563;52.416;13.548;2023-12-20T08:06:54;100429.94;;;5.54;100.00
68594;BME280;55563;52.416;13.548;2023-12-20T08:08:55;100428.91;;;5.55;100.00
68594;BME280;55563;52.416;13.548;2023-12-20T08:10:55;100449.88;;;5.60;100.00
68594;BME280;55563;52.416;13.548;2023-12-20T08:12:58;100439.19;;;5.61;100.00
68594;BME280;55563;52.416;13.548;2023-12-20T08:14:58;100434.47;;;5.58;100.00
68594;BME280;55563;52.416;13.548;2023-12-20T08:16:59;100441.91;;;5.66;100.00
68594;BME280;55563;52.416;13.548;2023-12-20T08:19:00;100432.28;;;5.67;100.00
68594;BME280;55563;52.416;13.548;2023-12-20T08:21:00;100439.09;;;5.68;100.00
68594;BME280;55563;52.416;13.548;2023-12-20T08:23:01;100435.69;;;5.67;100.00
68594;BME280;55563;52.416;13.548;2023-12-20T08:25:03;100431.25;;;5.68;100.00
68594;BME280;55563;52.416;13.548;2023-12-20T08:27:04;100431.50;;;5.66;100.00
68594;BME280;55563;52.416;13.548;2023-12-20T08:29:05;100425.41;;;5.61;100.00
68594;BME280;55563;52.416;13.548;2023-12-20T08:31:05;100419.59;;;5.70;100.00
68594;BME280;55563;52.416;13.548;2023-12-20T08:33:06;100426.94;;;5.74;100.00
68594;BME280;55563;52.416;13.548;2023-12-20T08:35:11;100434.78;;;5.74;100.00
68594;BME280;55563;52.416;13.548;2023-12-20T08:41:24;100428.53;;;5.75;100.00
68594;BME280;55563;52.416;13.548;2023-12-20T08:43:25;100420.72;;;5.75;100.00
68594;BME280;55563;52.416;13.548;2023-12-20T08:45:26;100424.34;;;5.74;100.00
68594;BME280;55563;52.416;13.548;2023-12-20T08:47:26;100438.19;;;5.74;100.00
68594;BME280;55563;52.416;13.548;2023-12-20T08:49:27;100425.47;;;5.78;100.00
68594;BME280;55563;52.416;13.548;2023-12-20T08:51:28;100427.94;;;5.84;100.00
68594;BME280;55563;52.416;13.548;2023-12-20T08:53:29;100428.97;;;5.83;100.00
68594;BME280;55563;52.416;13.548;2023-12-20T08:55:30;100420.91;;;5.85;100.00
68594;BME280;55563;52.416;13.548;2023-12-20T08:57:31;100420.25;;;5.89;100.00
68594;BME280;55563;52.416;13.548;2023-12-20T08:59:33;100422.59;;;5.91;100.00
68594;BME280;55563;52.416;13.548;2023-12-20T09:01:33;100409.81;;;5.89;100.00
68594;BME280;55563;52.416;13.548;2023-12-20T09:03:34;100413.97;;;5.90;100.00
68594;BME280;55563;52.416;13.548;2023-12-20T09:05:34;100416.38;;;5.92;100.00
68594;BME280;55563;52.416;13.548;2023-12-20T09:07:35;100412.84;;;5.98;100.00
68594;BME280;55563;52.416;13.548;2023-12-20T09:09:35;100408.16;;;6.00;100.00
68594;BME280;55563;52.416;13.548;2023-12-20T09:11:36;100420.66;;;5.98;100.00
68594;BME280;55563;52.416;13.548;2023-12-20T09:13:38;100422.56;;;6.02;100.00
68594;BME280;55563;52.416;13.548;2023-12-20T09:15:40;100421.56;;;6.03;100.00
68594;BME280;55563;52.416;13.548;2023-12-20T09:17:40;100423.09;;;6.04;100.00
68594;BME280;55563;52.416;13.548;2023-12-20T09:19:43;100423.22;;;6.09;100.00
68594;BME280;55563;52.416;13.548;2023-12-20T09:21:44;100417.75;;;6.11;100.00
68594;BME280;55563;52.416;13.548;2023-12-20T09:23:45;100407.72;;;6.03;100.00
68594;BME280;55563;52.416;13.548;2023-12-20T09:25:46;100405.03;;;6.14;100.00
68594;BME280;55563;52.416;13.548;2023-12-20T09:27:46;100409.72;;;6.12;100.00
68594;BME280;55563;52.416;13.548;2023-12-20T09:29:47;100413.13;;;6.13;100.00
68594;BME280;55563;52.416;13.548;2023-12-20T09:31:48;100403.69;;;6.12;100.00
68594;BME280;55563;52.416;13.548;2023-12-20T09:33:50;100403.22;;;6.15;100.00
68594;BME280;55563;52.416;13.548;2023-12-20T09:35:51;100393.34;;;6.17;100.00
68594;BME280;55563;52.416;13.548;2023-12-20T09:37:51;100397.88;;;6.22;100.00
68594;BME280;55563;52.416;13.548;2023-12-20T09:39:52;100391.53;;;6.18;100.00
68594;BME280;55563;52.416;13.548;2023-12-20T09:42:01;100395.16;;;6.17;100.00
68594;BME280;55563;52.416;13.548;2023-12-20T09:44:03;100399.91;;;6.20;100.00
68594;BME280;55563;52.416;13.548;2023-12-20T09:46:06;100397.06;;;6.21;100.00
68594;BME280;55563;52.416;13.548;2023-12-20T09:48:09;100396.28;;;6.21;100.00
68594;BME280;55563;52.416;13.548;2023-12-20T09:50:12;100395.34;;;6.27;100.00
68594;BME280;55563;52.416;13.548;2023-12-20T09:52:14;100391.00;;;6.32;100.00
68594;BME280;55563;52.416;13.548;2023-12-20T09:54:17;100389.00;;;6.39;100.00
68594;BME280;55563;52.416;13.548;2023-12-20T09:56:18;100384.38;;;6.41;100.00
68594;BME280;55563;52.416;13.548;2023-12-20T09:58:19;100380.38;;;6.39;100.00
68594;BME280;55563;52.416;13.548;2023-12-20T10:00:19;100370.44;;;6.36;100.00
68594;BME280;55563;52.416;13.548;2023-12-20T10:02:24;100374.06;;;6.35;100.00
68594;BME280;55563;52.416;13.548;2023-12-20T10:04:27;100370.66;;;6.34;100.00
68594;BME280;55563;52.416;13.548;2023-12-20T10:06:28;100370.44;;;6.36;100.00
68594;BME280;55563;52.416;13.548;2023-12-20T10:08:28;100355.34;;;6.38;100.00
68594;BME280;55563;52.416;13.548;2023-12-20T10:10:30;100352.78;;;6.43;100.00
68594;BME280;55563;52.416;13.548;2023-12-20T10:12:31;100345.75;;;6.43;100.00
68594;BME280;55563;52.416;13.548;2023-12-20T10:14:32;100348.28;;;6.38;100.00
68594;BME280;55563;52.416;13.548;2023-12-20T10:16:33;100342.53;;;6.36;100.00
68594;BME280;55563;52.416;13.548;2023-12-20T10:18:34;100340.88;;;6.47;100.00
68594;BME280;55563;52.416;13.548;2023-12-20T10:20:35;100340.78;;;6.42;100.00
68594;BME280;55563;52.416;13.548;2023-12-20T10:22:35;100330.09;;;6.27;100.00
68594;BME280;55563;52.416;13.548;2023-12-20T10:24:37;100332.06;;;6.36;100.00
68594;BME280;55563;52.416;13.548;2023-12-20T10:26:38;100328.09;;;6.34;100.00
68594;BME280;55563;52.416;13.548;2023-12-20T10:28:38;100327.25;;;6.45;100.00
68594;BME280;55563;52.416;13.548;2023-12-20T10:30:40;100329.13;;;6.49;100.00